sensor_id;sensor_type;location;lat;lon;timestamp;temperature;humidity
56869;DHT22;42754;0.000;0.000;2023-03-17T00:02:22;7.90;99.90
56869;DHT22;42754;0.000;0.000;2023-03-17T00:04:48;7.90;99.90
56869;DHT22;42754;0.000;0.000;2023-03-17T00:07:13;7.90;99.90
56869;DHT22;42754;0.000;0.000;2023-03-17T00:09:41;8.00;99.90
56869;DHT22;42754;0.000;0.000;2023-03-17T00:12:11;8.00;99.90
56869;DHT22;42754;0.000;0.000;2023-03-17T00:14:37;7.90;99.90
56869;DHT22;42754;0.000;0.000;2023-03-17T00:17:04;7.90;99.90
56869;DHT22;42754;0.000;0.000;2023-03-17T00:19:30;7.90;99.90
56869;DHT22;42754;0.000;0.000;2023-03-17T00:21:59;7.90;99.90
56869;DHT22;42754;0.000;0.000;2023-03-17T00:24:25;7.80;99.90
56869;DHT22;42754;0.000;0.000;2023-03-17T00:26:52;7.80;99.90
56869;DHT22;42754;0.000;0.000;2023-03-17T00:29:18;7.70;99.90
56869;DHT22;42754;0.000;0.000;2023-03-17T00:31:45;7.70;99.90
56869;DHT22;42754;0.000;0.000;2023-03-17T00:34:11;7.70;99.90
56869;DHT22;42754;0.000;0.000;2023-03-17T00:36:40;7.60;99.90
56869;DHT22;42754;0.000;0.000;2023-03-17T00:39:11;7.60;99.90
56869;DHT22;42754;0.000;0.000;2023-03-17T00:41:38;7.60;99.90
56869;DHT22;42754;0.000;0.000;2023-03-17T00:44:03;7.60;99.90
56869;DHT22;42754;0.000;0.000;2023-03-17T00:46:29;7.60;99.90
56869;DHT22;42754;0.000;0.000;2023-03-17T00:49:05;7.60;99.90
56869;DHT22;42754;0.000;0.000;2023-03-17T00:51:35;7.60;99.90
56869;DHT22;42754;0.000;0.000;2023-03-17T00:54:00;7.60;99.90
56869;DHT22;42754;0.000;0.000;2023-03-17T00:56:27;7.60;99.90
56869;DHT22;42754;0.000;0.000;2023-03-17T00:58:52;7.60;99.90
56869;DHT22;42754;0.000;0.000;2023-03-17T01:01:18;7.60;99.90
56869;DHT22;42754;0.000;0.000;2023-03-17T01:03:45;7.60;99.90
56869;DHT22;42754;0.000;0.000;2023-03-17T01:06:11;7.60;99.90
56869;DHT22;42754;0.000;0.000;2023-03-17T01:08:38;7.50;99.90
56869;DHT22;42754;0.000;0.000;2023-03-17T01:11:04;7.50;99.90
56869;DHT22;42754;0.000;0.000;2023-03-17T01:13:31;7.40;99.90
56869;DHT22;42754;0.000;0.000;2023-03-17T01:15:56;7.40;99.90
56869;DHT22;42754;0.000;0.000;2023-03-17T01:18:22;7.40;99.90
56869;DHT22;42754;0.000;0.000;2023-03-17T01:20:48;7.40;99.90
56869;DHT22;42754;0.000;0.000;2023-03-17T01:23:14;7.30;99.90
56869;DHT22;42754;0.000;0.000;2023-03-17T01:25:40;7.20;99.90
56869;DHT22;42754;0.000;0.000;2023-03-17T01:28:17;7.20;99.90
56869;DHT22;42754;0.000;0.000;2023-03-17T01:30:43;7.20;99.90
56869;DHT22;42754;0.000;0.000;2023-03-17T01:33:11;7.20;99.90
56869;DHT22;42754;0.000;0.000;2023-03-17T01:35:37;7.20;99.90
56869;DHT22;42754;0.000;0.000;2023-03-17T01:38:03;7.10;99.90
56869;DHT22;42754;0.000;0.000;2023-03-17T01:40:31;7.10;99.90
56869;DHT22;42754;0.000;0.000;2023-03-17T01:48:20;7.20;99.90
56869;DHT22;42754;0.000;0.000;2023-03-17T01:50:47;7.30;99.90
56869;DHT22;42754;0.000;0.000;2023-03-17T01:53:14;7.30;99.90
56869;DHT22;42754;0.000;0.000;2023-03-17T01:55:40;7.30;99.90
56869;DHT22;42754;0.000;0.000;2023-03-17T01:58:06;7.30;99.90
56869;DHT22;42754;0.000;0.000;2023-03-17T02:00:31;7.20;99.90
56869;DHT22;42754;0.000;0.000;2023-03-17T02:02:57;7.20;99.90
56869;DHT22;42754;0.000;0.000;2023-03-17T02:05:25;7.20;99.90
56869;DHT22;42754;0.000;0.000;2023-03-17T02:07:51;7.20;99.90
56869;DHT22;42754;0.000;0.000;2023-03-17T02:10:18;7.20;99.90
56869;DHT22;42754;0.000;0.000;2023-03-17T02:12:45;7.20;99.90
56869;DHT22;42754;0.000;0.000;2023-03-17T02:15:14;7.20;99.90
56869;DHT22;42754;0.000;0.000;2023-03-17T02:17:40;7.20;99.90
56869;DHT22;42754;0.000;0.000;2023-03-17T02:21:23;7.20;99.90
56869;DHT22;42754;0.000;0.000;2023-03-17T02:22:57;7.10;99.90
56869;DHT22;42754;0.000;0.000;2023-03-17T02:25:23;7.10;99.90
56869;DHT22;42754;0.000;0.000;2023-03-17T02:27:51;7.10;99.90
56869;DHT22;42754;0.000;0.000;2023-03-17T02:30:19;7.10;99.90
56869;DHT22;42754;0.000;0.000;2023-03-17T02:32:45;7.10;99.90
56869;DHT22;42754;0.000;0.000;2023-03-17T02:35:11;7.00;99.90
56869;DHT22;42754;0.000;0.000;2023-03-17T02:37:37;7.00;99.90
56869;DHT22;42754;0.000;0.000;2023-03-17T02:40:03;6.90;99.90
56869;DHT22;42754;0.000;0.000;2023-03-17T02:42:30;6.90;99.90
56869;DHT22;42754;0.000;0.000;2023-03-17T02:44:55;6.90;99.90
56869;DHT22;42754;0.000;0.000;2023-03-17T02:47:22;6.90;99.90
56869;DHT22;42754;0.000;0.000;2023-03-17T02:49:48;6.90;99.90
56869;DHT22;42754;0.000;0.000;2023-03-17T02:52:14;7.00;99.90
56869;DHT22;42754;0.000;0.000;2023-03-17T02:54:40;7.00;99.90
56869;DHT22;42754;0.000;0.000;2023-03-17T02:57:05;7.00;99.90
56869;DHT22;42754;0.000;0.000;2023-03-17T02:59:32;6.90;99.90
56869;DHT22;42754;0.000;0.000;2023-03-17T03:01:58;7.00;99.90
56869;DHT22;42754;0.000;0.000;2023-03-17T03:04:23;6.90;99.90
56869;DHT22;42754;0.000;0.000;2023-03-17T03:06:50;7.00;99.90
56869;DHT22;42754;0.000;0.000;2023-03-17T03:09:16;6.90;99.90
56869;DHT22;42754;0.000;0.000;2023-03-17T03:11:42;6.90;99.90
56869;DHT22;42754;0.000;0.000;2023-03-17T03:14:09;6.90;99.90
56869;DHT22;42754;0.000;0.000;2023-03-17T03:16:34;6.90;99.90
56869;DHT22;42754;0.000;0.000;2023-03-17T03:19:00;7.00;99.90
56869;DHT22;42754;0.000;0.000;2023-03-17T03:21:26;6.90;99.90
56869;DHT22;42754;0.000;0.000;2023-03-17T03:23:53;6.90;99.90
56869;DHT22;42754;0.000;0.000;2023-03-17T03:26:18;6.90;99.90
56869;DHT22;42754;0.000;0.000;2023-03-17T03:28:44;6.90;99.90
56869;DHT22;42754;0.000;0.000;2023-03-17T03:31:09;7.00;99.90
56869;DHT22;42754;0.000;0.000;2023-03-17T03:33:36;7.00;99.90
56869;DHT22;42754;0.000;0.000;2023-03-17T03:36:02;7.00;99.90
56869;DHT22;42754;0.000;0.000;2023-03-17T03:38:28;6.90;99.90
56869;DHT22;42754;0.000;0.000;2023-03-17T03:40:53;6.90;99.90
56869;DHT22;42754;0.000;0.000;2023-03-17T03:43:19;7.00;99.90
56869;DHT22;42754;0.000;0.000;2023-03-17T03:45:46;6.90;99.90
56869;DHT22;42754;0.000;0.000;2023-03-17T03:48:11;7.00;99.90
56869;DHT22;42754;0.000;0.000;2023-03-17T03:50:37;7.00;99.90
56869;DHT22;42754;0.000;0.000;2023-03-17T03:53:03;7.00;99.90
56869;DHT22;42754;0.000;0.000;2023-03-17T03:55:29;7.00;99.90
56869;DHT22;42754;0.000;0.000;2023-03-17T03:57:56;7.00;99.90
56869;DHT22;42754;0.000;0.000;2023-03-17T04:00:21;7.00;99.90
56869;DHT22;42754;0.000;0.000;2023-03-17T04:02:47;7.00;99.90
56869;DHT22;42754;0.000;0.000;2023-03-17T04:05:14;7.00;99.90
56869;DHT22;42754;0.000;0.000;2023-03-17T04:07:40;6.90;99.90
56869;DHT22;42754;0.000;0.000;2023-03-17T04:10:08;6.90;99.90
56869;DHT22;42754;0.000;0.000;2023-03-17T04:12:33;6.90;99.90
56869;DHT22;42754;0.000;0.000;2023-03-17T04:14:59;7.00;99.90
56869;DHT22;42754;0.000;0.000;2023-03-17T04:17:25;7.00;99.90
56869;DHT22;42754;0.000;0.000;2023-03-17T04:19:52;6.90;99.90
56869;DHT22;42754;0.000;0.000;2023-03-17T04:22:17;6.90;99.90
56869;DHT22;42754;0.000;0.000;2023-03-17T04:24:43;6.90;99.90
56869;DHT22;42754;0.000;0.000;2023-03-17T04:27:08;7.00;99.90
56869;DHT22;42754;0.000;0.000;2023-03-17T04:29:34;7.00;99.90
56869;DHT22;42754;0.000;0.000;2023-03-17T04:32:00;7.00;99.90
56869;DHT22;42754;0.000;0.000;2023-03-17T04:34:26;7.00;99.90
56869;DHT22;42754;0.000;0.000;2023-03-17T04:36:52;6.90;99.90
56869;DHT22;42754;0.000;0.000;2023-03-17T04:39:19;7.00;99.90
56869;DHT22;42754;0.000;0.000;2023-03-17T04:41:45;7.00;99.90
56869;DHT22;42754;0.000;0.000;2023-03-17T04:44:10;6.90;99.90
56869;DHT22;42754;0.000;0.000;2023-03-17T04:46:36;6.90;99.90
56869;DHT22;42754;0.000;0.000;2023-03-17T04:49:02;6.90;99.90
56869;DHT22;42754;0.000;0.000;2023-03-17T04:51:28;6.90;99.90
56869;DHT22;42754;0.000;0.000;2023-03-17T04:53:54;6.80;99.90
56869;DHT22;42754;0.000;0.000;2023-03-17T04:56:20;6.80;99.90
56869;DHT22;42754;0.000;0.000;2023-03-17T04:58:46;6.80;99.90
56869;DHT22;42754;0.000;0.000;2023-03-17T05:01:12;6.80;99.90
56869;DHT22;42754;0.000;0.000;2023-03-17T05:03:37;6.80;99.90
56869;DHT22;42754;0.000;0.000;2023-03-17T05:06:03;6.70;99.90
56869;DHT22;42754;0.000;0.000;2023-03-17T05:08:29;6.70;99.90
56869;DHT22;42754;0.000;0.000;2023-03-17T05:10:56;6.70;99.90
56869;DHT22;42754;0.000;0.000;2023-03-17T05:13:23;6.70;99.90
56869;DHT22;42754;0.000;0.000;2023-03-17T05:15:50;6.70;99.90
56869;DHT22;42754;0.000;0.000;2023-03-17T05:18:16;6.70;99.90
56869;DHT22;42754;0.000;0.000;2023-03-17T05:20:43;6.70;99.90
56869;DHT22;42754;0.000;0.000;2023-03-17T05:23:08;6.70;99.90
56869;DHT22;42754;0.000;0.000;2023-03-17T05:25:35;6.70;99.90
56869;DHT22;42754;0.000;0.000;2023-03-17T05:28:01;6.70;99.90
56869;DHT22;42754;0.000;0.000;2023-03-17T05:30:29;6.70;99.90
56869;DHT22;42754;0.000;0.000;2023-03-17T05:32:54;6.80;99.90
56869;DHT22;42754;0.000;0.000;2023-03-17T05:35:20;6.80;99.90
56869;DHT22;42754;0.000;0.000;2023-03-17T05:37:46;6.70;99.90
56869;DHT22;42754;0.000;0.000;2023-03-17T05:40:12;6.70;99.90
56869;DHT22;42754;0.000;0.000;2023-03-17T05:42:39;6.70;99.90
56869;DHT22;42754;0.000;0.000;2023-03-17T05:45:07;6.70;99.90
56869;DHT22;42754;0.000;0.000;2023-03-17T05:47:33;6.70;99.90
56869;DHT22;42754;0.000;0.000;2023-03-17T05:49:59;6.70;99.90
56869;DHT22;42754;0.000;0.000;2023-03-17T05:52:25;6.60;99.90
56869;DHT22;42754;0.000;0.000;2023-03-17T05:54:55;6.60;99.90
56869;DHT22;42754;0.000;0.000;2023-03-17T05:57:21;6.70;99.90
56869;DHT22;42754;0.000;0.000;2023-03-17T05:59:48;6.70;99.90
56869;DHT22;42754;0.000;0.000;2023-03-17T06:02:15;6.70;99.90
56869;DHT22;42754;0.000;0.000;2023-03-17T06:04:41;6.70;99.90
56869;DHT22;42754;0.000;0.000;2023-03-17T06:07:07;6.70;99.90
56869;DHT22;42754;0.000;0.000;2023-03-17T06:09:33;6.70;99.90
56869;DHT22;42754;0.000;0.000;2023-03-17T06:12:02;6.70;99.90
56869;DHT22;42754;0.000;0.000;2023-03-17T06:14:28;6.80;99.90
56869;DHT22;42754;0.000;0.000;2023-03-17T06:16:53;6.80;99.90
56869;DHT22;42754;0.000;0.000;2023-03-17T06:19:19;6.80;99.90
56869;DHT22;42754;0.000;0.000;2023-03-17T06:21:45;6.90;99.90
56869;DHT22;42754;0.000;0.000;2023-03-17T06:24:10;6.90;99.90
56869;DHT22;42754;0.000;0.000;2023-03-17T06:26:36;6.90;99.90
56869;DHT22;42754;0.000;0.000;2023-03-17T06:29:03;7.00;99.90
56869;DHT22;42754;0.000;0.000;2023-03-17T06:31:28;6.90;99.90
56869;DHT22;42754;0.000;0.000;2023-03-17T06:33:54;6.90;99.90
56869;DHT22;42754;0.000;0.000;2023-03-17T06:36:20;6.90;99.90
56869;DHT22;42754;0.000;0.000;2023-03-17T06:38:46;7.00;99.90
56869;DHT22;42754;0.000;0.000;2023-03-17T06:41:12;7.00;99.90
56869;DHT22;42754;0.000;0.000;2023-03-17T06:43:37;7.00;99.90
56869;DHT22;42754;0.000;0.000;2023-03-17T06:46:03;7.00;99.90
56869;DHT22;42754;0.000;0.000;2023-03-17T06:48:29;7.00;99.90
56869;DHT22;42754;0.000;0.000;2023-03-17T06:50:55;7.10;99.90
56869;DHT22;42754;0.000;0.000;2023-03-17T06:53:21;7.10;99.90
56869;DHT22;42754;0.000;0.000;2023-03-17T06:55:48;7.10;99.90
56869;DHT22;42754;0.000;0.000;2023-03-17T06:58:13;7.10;99.90
56869;DHT22;42754;0.000;0.000;2023-03-17T07:00:44;7.20;99.90
56869;DHT22;42754;0.000;0.000;2023-03-17T07:03:11;7.40;99.90
56869;DHT22;42754;0.000;0.000;2023-03-17T07:05:37;7.70;99.90
56869;DHT22;42754;0.000;0.000;2023-03-17T07:08:03;7.90;99.90
56869;DHT22;42754;0.000;0.000;2023-03-17T07:10:33;8.00;99.90
56869;DHT22;42754;0.000;0.000;2023-03-17T07:12:58;8.10;99.90
56869;DHT22;42754;0.000;0.000;2023-03-17T07:15:24;8.20;99.90
56869;DHT22;42754;0.000;0.000;2023-03-17T07:17:50;8.30;99.90
56869;DHT22;42754;0.000;0.000;2023-03-17T07:20:16;8.50;99.90
56869;DHT22;42754;0.000;0.000;2023-03-17T07:22:41;8.60;99.90
56869;DHT22;42754;0.000;0.000;2023-03-17T07:25:07;8.70;99.90
56869;DHT22;42754;0.000;0.000;2023-03-17T07:27:34;8.80;99.90
56869;DHT22;42754;0.000;0.000;2023-03-17T07:30:00;8.90;99.90
56869;DHT22;42754;0.000;0.000;2023-03-17T07:32:29;8.90;99.90
56869;DHT22;42754;0.000;0.000;2023-03-17T07:34:55;8.90;99.90
56869;DHT22;42754;0.000;0.000;2023-03-17T07:37:21;8.90;99.90
56869;DHT22;42754;0.000;0.000;2023-03-17T07:39:47;9.00;99.90
56869;DHT22;42754;0.000;0.000;2023-03-17T07:42:13;9.10;99.90
56869;DHT22;42754;0.000;0.000;2023-03-17T07:44:40;9.20;99.90
56869;DHT22;42754;0.000;0.000;2023-03-17T07:47:06;9.30;99.90
56869;DHT22;42754;0.000;0.000;2023-03-17T07:49:32;9.30;99.90
56869;DHT22;42754;0.000;0.000;2023-03-17T07:51:58;9.40;99.90
56869;DHT22;42754;0.000;0.000;2023-03-17T07:54:24;9.50;99.90
56869;DHT22;42754;0.000;0.000;2023-03-17T07:56:51;9.50;99.90
56869;DHT22;42754;0.000;0.000;2023-03-17T07:59:18;9.50;99.90
56869;DHT22;42754;0.000;0.000;2023-03-17T08:01:45;9.50;99.90
56869;DHT22;42754;0.000;0.000;2023-03-17T08:04:10;9.70;99.90
56869;DHT22;42754;0.000;0.000;2023-03-17T08:06:38;9.70;99.90
56869;DHT22;42754;0.000;0.000;2023-03-17T08:09:06;9.80;99.90
56869;DHT22;42754;0.000;0.000;2023-03-17T08:11:33;9.90;99.90
56869;DHT22;42754;0.000;0.000;2023-03-17T08:13:59;9.90;99.90
56869;DHT22;42754;0.000;0.000;2023-03-17T08:16:25;10.00;99.90
56869;DHT22;42754;0.000;0.000;2023-03-17T08:18:51;10.10;99.90
56869;DHT22;42754;0.000;0.000;2023-03-17T08:21:17;10.10;99.90
56869;DHT22;42754;0.000;0.000;2023-03-17T08:23:43;10.10;99.90
56869;DHT22;42754;0.000;0.000;2023-03-17T08:26:08;10.40;99.90
56869;DHT22;42754;0.000;0.000;2023-03-17T08:28:34;10.70;99.90
56869;DHT22;42754;0.000;0.000;2023-03-17T08:31:07;10.80;99.90
56869;DHT22;42754;0.000;0.000;2023-03-17T08:33:33;10.80;99.90
56869;DHT22;42754;0.000;0.000;2023-03-17T08:36:03;10.90;99.90
56869;DHT22;42754;0.000;0.000;2023-03-17T08:38:28;11.10;99.90
56869;DHT22;42754;0.000;0.000;2023-03-17T08:40:58;11.40;99.90
56869;DHT22;42754;0.000;0.000;2023-03-17T08:43:23;11.70;99.90
56869;DHT22;42754;0.000;0.000;2023-03-17T08:45:49;11.80;99.90
56869;DHT22;42754;0.000;0.000;2023-03-17T08:48:14;12.10;99.90
56869;DHT22;42754;0.000;0.000;2023-03-17T08:50:40;12.30;99.90
56869;DHT22;42754;0.000;0.000;2023-03-17T08:53:05;12.40;99.90
56869;DHT22;42754;0.000;0.000;2023-03-17T08:55:35;12.60;99.90
56869;DHT22;42754;0.000;0.000;2023-03-17T08:58:01;13.00;99.90
56869;DHT22;42754;0.000;0.000;2023-03-17T09:00:29;13.10;99.90
56869;DHT22;42754;0.000;0.000;2023-03-17T09:02:55;13.60;99.90
56869;DHT22;42754;0.000;0.000;2023-03-17T09:05:22;13.80;99.90
56869;DHT22;42754;0.000;0.000;2023-03-17T09:07:48;13.80;99.90
56869;DHT22;42754;0.000;0.000;2023-03-17T09:10:14;13.30;99.90
56869;DHT22;42754;0.000;0.000;2023-03-17T09:12:41;13.10;99.90
56869;DHT22;42754;0.000;0.000;2023-03-17T09:15:07;13.30;99.90
56869;DHT22;42754;0.000;0.000;2023-03-17T09:17:33;13.30;99.90
56869;DHT22;42754;0.000;0.000;2023-03-17T09:19:59;13.60;99.90
56869;DHT22;42754;0.000;0.000;2023-03-17T09:22:24;13.70;99.90
56869;DHT22;42754;0.000;0.000;2023-03-17T09:24:50;13.70;99.90
56869;DHT22;42754;0.000;0.000;2023-03-17T09:27:16;13.90;99.90
56869;DHT22;42754;0.000;0.000;2023-03-17T09:29:41;14.00;99.90
56869;DHT22;42754;0.000;0.000;2023-03-17T09:32:07;14.20;99.90
56869;DHT22;42754;0.000;0.000;2023-03-17T09:34:34;14.20;99.90
56869;DHT22;42754;0.000;0.000;2023-03-17T09:37:00;14.40;99.90
56869;DHT22;42754;0.000;0.000;2023-03-17T09:39:25;14.60;99.90
56869;DHT22;42754;0.000;0.000;2023-03-17T09:46:52;14.20;99.90
56869;DHT22;42754;0.000;0.000;2023-03-17T09:49:36;14.20;99.90
56869;DHT22;42754;0.000;0.000;2023-03-17T09:52:02;14.30;99.90
56869;DHT22;42754;0.000;0.000;2023-03-17T09:54:34;14.40;99.90
56869;DHT22;42754;0.000;0.000;2023-03-17T09:57:03;14.60;99.90
56869;DHT22;42754;0.000;0.000;2023-03-17T10:01:59;14.70;99.90
56869;DHT22;42754;0.000;0.000;2023-03-17T10:04:25;14.80;99.90
56869;DHT22;42754;0.000;0.000;2023-03-17T10:06:51;14.80;99.90
56869;DHT22;42754;0.000;0.000;2023-03-17T10:11:48;14.70;99.90
56869;DHT22;42754;0.000;0.000;2023-03-17T10:16:50;15.50;99.90
56869;DHT22;42754;0.000;0.000;2023-03-17T10:21:47;15.60;99.90
56869;DHT22;42754;0.000;0.000;2023-03-17T10:24:14;15.20;99.90
56869;DHT22;42754;0.000;0.000;2023-03-17T10:26:44;15.50;99.90
56869;DHT22;42754;0.000;0.000;2023-03-17T10:29:13;15.70;99.90
56869;DHT22;42754;0.000;0.000;2023-03-17T10:31:39;15.70;99.90
56869;DHT22;42754;0.000;0.000;2023-03-17T10:34:18;15.70;99.90
56869;DHT22;42754;0.000;0.000;2023-03-17T10:36:47;15.60;99.90
56869;DHT22;42754;0.000;0.000;2023-03-17T10:39:16;15.50;99.90
56869;DHT22;42754;0.000;0.000;2023-03-17T10:41:58;15.70;99.90
56869;DHT22;42754;0.000;0.000;2023-03-17T10:44:29;16.00;99.90
56869;DHT22;42754;0.000;0.000;2023-03-17T10:47:00;16.10;99.90
56869;DHT22;42754;0.000;0.000;2023-03-17T10:49:26;16.50;99.90
56869;DHT22;42754;0.000;0.000;2023-03-17T10:51:56;16.60;99.90
56869;DHT22;42754;0.000;0.000;2023-03-17T10:54:22;16.40;99.90
56869;DHT22;42754;0.000;0.000;2023-03-17T10:56:53;16.20;99.90
56869;DHT22;42754;0.000;0.000;2023-03-17T10:59:24;16.50;99.90
56869;DHT22;42754;0.000;0.000;2023-03-17T11:01:52;16.40;99.90
56869;DHT22;42754;0.000;0.000;2023-03-17T11:04:39;16.10;99.90
56869;DHT22;42754;0.000;0.000;2023-03-17T11:07:07;15.90;99.90
56869;DHT22;42754;0.000;0.000;2023-03-17T11:09:35;15.90;99.90
56869;DHT22;42754;0.000;0.000;2023-03-17T11:12:03;16.00;99.90
56869;DHT22;42754;0.000;0.000;2023-03-17T11:14:29;15.80;99.90
56869;DHT22;42754;0.000;0.000;2023-03-17T11:19:59;15.90;99.90
56869;DHT22;42754;0.000;0.000;2023-03-17T11:22:30;16.10;99.90
56869;DHT22;42754;0.000;0.000;2023-03-17T11:25:02;16.30;99.90
56869;DHT22;42754;0.000;0.000;2023-03-17T11:27:34;16.10;99.90
56869;DHT22;42754;0.000;0.000;2023-03-17T11:30:16;16.10;99.90
56869;DHT22;42754;0.000;0.000;2023-03-17T11:45:44;16.60;99.90
56869;DHT22;42754;0.000;0.000;2023-03-17T11:51:00;15.90;99.90
56869;DHT22;42754;0.000;0.000;2023-03-17T11:56:02;15.80;99.90
56869;DHT22;42754;0.000;0.000;2023-03-17T11:58:40;15.70;99.90
56869;DHT22;42754;0.000;0.000;2023-03-17T12:01:07;15.90;99.90
56869;DHT22;42754;0.000;0.000;2023-03-17T12:06:01;16.50;99.90
56869;DHT22;42754;0.000;0.000;2023-03-17T12:08:43;16.80;99.90
56869;DHT22;42754;0.000;0.000;2023-03-17T12:11:14;16.90;99.90
56869;DHT22;42754;0.000;0.000;2023-03-17T12:16:22;16.50;99.90
56869;DHT22;42754;0.000;0.000;2023-03-17T12:24:10;17.50;99.90
56869;DHT22;42754;0.000;0.000;2023-03-17T12:29:21;17.60;99.70
56869;DHT22;42754;0.000;0.000;2023-03-17T12:32:33;17.40;99.20
56869;DHT22;42754;0.000;0.000;2023-03-17T12:34:41;17.50;99.50
56869;DHT22;42754;0.000;0.000;2023-03-17T12:37:08;17.50;99.40
56869;DHT22;42754;0.000;0.000;2023-03-17T12:39:35;17.60;99.70
56869;DHT22;42754;0.000;0.000;2023-03-17T12:47:23;17.90;98.80
56869;DHT22;42754;0.000;0.000;2023-03-17T12:54:46;18.10;99.20
56869;DHT22;42754;0.000;0.000;2023-03-17T12:57:59;18.00;98.50
56869;DHT22;42754;0.000;0.000;2023-03-17T13:00:03;18.00;98.50
56869;DHT22;42754;0.000;0.000;2023-03-17T13:02:31;17.80;98.50
56869;DHT22;42754;0.000;0.000;2023-03-17T13:04:59;17.80;98.10
56869;DHT22;42754;0.000;0.000;2023-03-17T13:07:30;17.60;98.60
56869;DHT22;42754;0.000;0.000;2023-03-17T13:15:01;17.70;98.80
56869;DHT22;42754;0.000;0.000;2023-03-17T13:17:29;17.80;99.40
56869;DHT22;42754;0.000;0.000;2023-03-17T13:22:37;17.70;99.50
56869;DHT22;42754;0.000;0.000;2023-03-17T13:35:45;17.10;99.70
56869;DHT22;42754;0.000;0.000;2023-03-17T13:49:48;17.50;99.40
56869;DHT22;42754;0.000;0.000;2023-03-17T13:52:11;17.30;99.20
56869;DHT22;42754;0.000;0.000;2023-03-17T13:54:39;17.10;99.50
56869;DHT22;42754;0.000;0.000;2023-03-17T13:57:22;16.90;99.90
56869;DHT22;42754;0.000;0.000;2023-03-17T14:02:16;17.10;99.90
56869;DHT22;42754;0.000;0.000;2023-03-17T14:04:50;17.20;99.90
56869;DHT22;42754;0.000;0.000;2023-03-17T14:07:17;17.20;99.90
56869;DHT22;42754;0.000;0.000;2023-03-17T14:09:44;17.20;99.80
56869;DHT22;42754;0.000;0.000;2023-03-17T14:12:11;17.10;99.90
56869;DHT22;42754;0.000;0.000;2023-03-17T14:17:13;17.30;99.90
56869;DHT22;42754;0.000;0.000;2023-03-17T14:19:39;17.30;99.90
56869;DHT22;42754;0.000;0.000;2023-03-17T14:22:17;17.20;99.90
56869;DHT22;42754;0.000;0.000;2023-03-17T14:24:43;17.20;99.90
56869;DHT22;42754;0.000;0.000;2023-03-17T14:27:10;17.30;99.90
56869;DHT22;42754;0.000;0.000;2023-03-17T14:29:36;17.40;99.90
56869;DHT22;42754;0.000;0.000;2023-03-17T14:32:12;17.40;99.90
56869;DHT22;42754;0.000;0.000;2023-03-17T14:34:45;17.30;99.90
56869;DHT22;42754;0.000;0.000;2023-03-17T14:37:12;17.30;99.90
56869;DHT22;42754;0.000;0.000;2023-03-17T14:39:46;17.30;99.90
56869;DHT22;42754;0.000;0.000;2023-03-17T14:42:12;17.20;99.90
56869;DHT22;42754;0.000;0.000;2023-03-17T14:44:42;17.00;99.90
56869;DHT22;42754;0.000;0.000;2023-03-17T14:47:17;16.90;99.90
56869;DHT22;42754;0.000;0.000;2023-03-17T14:49:43;16.90;99.90
56869;DHT22;42754;0.000;0.000;2023-03-17T14:52:16;16.80;99.90
56869;DHT22;42754;0.000;0.000;2023-03-17T14:54:42;16.80;99.90
56869;DHT22;42754;0.000;0.000;2023-03-17T14:57:13;16.80;99.90
56869;DHT22;42754;0.000;0.000;2023-03-17T14:59:40;16.80;99.90
56869;DHT22;42754;0.000;0.000;2023-03-17T15:02:29;16.70;99.90
56869;DHT22;42754;0.000;0.000;2023-03-17T15:04:57;16.70;99.90
56869;DHT22;42754;0.000;0.000;2023-03-17T15:07:56;16.70;99.90
56869;DHT22;42754;0.000;0.000;2023-03-17T15:10:16;16.60;99.90
56869;DHT22;42754;0.000;0.000;2023-03-17T15:12:42;16.60;99.90
56869;DHT22;42754;0.000;0.000;2023-03-17T15:15:16;16.50;99.90
56869;DHT22;42754;0.000;0.000;2023-03-17T15:17:45;16.60;99.90
56869;DHT22;42754;0.000;0.000;2023-03-17T15:20:15;16.50;99.90
56869;DHT22;42754;0.000;0.000;2023-03-17T15:22:42;16.50;99.90
56869;DHT22;42754;0.000;0.000;2023-03-17T15:25:19;16.50;99.90
56869;DHT22;42754;0.000;0.000;2023-03-17T15:27:45;16.60;99.90
56869;DHT22;42754;0.000;0.000;2023-03-17T15:30:11;16.50;99.90
56869;DHT22;42754;0.000;0.000;2023-03-17T15:32:37;16.50;99.90
56869;DHT22;42754;0.000;0.000;2023-03-17T15:35:02;16.50;99.90
56869;DHT22;42754;0.000;0.000;2023-03-17T15:37:29;16.50;99.90
56869;DHT22;42754;0.000;0.000;2023-03-17T15:39:59;16.50;99.90
56869;DHT22;42754;0.000;0.000;2023-03-17T15:42:29;16.50;99.90
56869;DHT22;42754;0.000;0.000;2023-03-17T15:44:56;16.40;99.90
56869;DHT22;42754;0.000;0.000;2023-03-17T15:47:23;16.40;99.90
56869;DHT22;42754;0.000;0.000;2023-03-17T15:49:50;16.30;99.90
56869;DHT22;42754;0.000;0.000;2023-03-17T15:52:17;16.30;99.90
56869;DHT22;42754;0.000;0.000;2023-03-17T15:54:46;16.30;99.90
56869;DHT22;42754;0.000;0.000;2023-03-17T15:57:11;16.20;99.90
56869;DHT22;42754;0.000;0.000;2023-03-17T15:59:38;16.20;99.90
56869;DHT22;42754;0.000;0.000;2023-03-17T16:02:25;16.10;99.90
56869;DHT22;42754;0.000;0.000;2023-03-17T16:04:50;16.10;99.90
56869;DHT22;42754;0.000;0.000;2023-03-17T16:07:18;16.00;99.90
56869;DHT22;42754;0.000;0.000;2023-03-17T16:09:43;16.10;99.90
56869;DHT22;42754;0.000;0.000;2023-03-17T16:12:10;16.00;99.90
56869;DHT22;42754;0.000;0.000;2023-03-17T16:14:36;16.10;99.90
56869;DHT22;42754;0.000;0.000;2023-03-17T16:17:01;16.00;99.90
56869;DHT22;42754;0.000;0.000;2023-03-17T16:19:27;16.00;99.90
56869;DHT22;42754;0.000;0.000;2023-03-17T16:21:53;16.00;99.90
56869;DHT22;42754;0.000;0.000;2023-03-17T16:24:23;15.90;99.90
56869;DHT22;42754;0.000;0.000;2023-03-17T16:26:49;15.90;99.90
56869;DHT22;42754;0.000;0.000;2023-03-17T16:29:15;15.90;99.90
56869;DHT22;42754;0.000;0.000;2023-03-17T16:31:42;15.90;99.90
56869;DHT22;42754;0.000;0.000;2023-03-17T16:34:13;15.90;99.90
56869;DHT22;42754;0.000;0.000;2023-03-17T16:36:39;15.80;99.90
56869;DHT22;42754;0.000;0.000;2023-03-17T16:39:29;15.80;99.90
56869;DHT22;42754;0.000;0.000;2023-03-17T16:41:54;15.70;99.90
56869;DHT22;42754;0.000;0.000;2023-03-17T16:44:19;15.70;99.90
56869;DHT22;42754;0.000;0.000;2023-03-17T16:46:45;15.60;99.90
56869;DHT22;42754;0.000;0.000;2023-03-17T16:49:15;15.60;99.90
56869;DHT22;42754;0.000;0.000;2023-03-17T16:51:40;15.60;99.90
56869;DHT22;42754;0.000;0.000;2023-03-17T16:54:07;15.50;99.90
56869;DHT22;42754;0.000;0.000;2023-03-17T16:56:32;15.50;99.90
56869;DHT22;42754;0.000;0.000;2023-03-17T16:58:58;15.40;99.90
56869;DHT22;42754;0.000;0.000;2023-03-17T17:01:24;15.30;99.90
56869;DHT22;42754;0.000;0.000;2023-03-17T17:03:51;15.20;99.90
56869;DHT22;42754;0.000;0.000;2023-03-17T17:06:17;15.20;99.90
56869;DHT22;42754;0.000;0.000;2023-03-17T17:08:43;15.10;99.90
56869;DHT22;42754;0.000;0.000;2023-03-17T17:11:11;15.10;99.90
56869;DHT22;42754;0.000;0.000;2023-03-17T17:13:38;15.10;99.90
56869;DHT22;42754;0.000;0.000;2023-03-17T17:16:04;15.00;99.90
56869;DHT22;42754;0.000;0.000;2023-03-17T17:18:30;15.00;99.90
56869;DHT22;42754;0.000;0.000;2023-03-17T17:20:55;15.00;99.90
56869;DHT22;42754;0.000;0.000;2023-03-17T17:23:22;14.90;99.90
56869;DHT22;42754;0.000;0.000;2023-03-17T17:25:49;14.90;99.90
56869;DHT22;42754;0.000;0.000;2023-03-17T17:28:16;14.80;99.90
56869;DHT22;42754;0.000;0.000;2023-03-17T17:30:43;14.70;99.90
56869;DHT22;42754;0.000;0.000;2023-03-17T17:33:12;14.70;99.90
56869;DHT22;42754;0.000;0.000;2023-03-17T17:35:37;14.60;99.90
56869;DHT22;42754;0.000;0.000;2023-03-17T17:38:03;14.60;99.90